Terminal Aerodrome Forecast
Issued by NWS Milwaukee/Sullivan, WI

Home | Current Version | Previous Version | Text Only | Print | Product List | Glossary On
Versions: 1 2 3 4 5 6 7 8 9 10 11 12 13 14 15 16 17 18 19 20 21 22 23 24 25 26 27 28 29
000
FTUS43 KMKX 301211 AAA
TAFMSN
TAF AMD
KMSN 301211Z 3012/3112 00000KT P6SM FEW070
     FM301700 30006KT P6SM FEW060
     FM302300 VRB03KT P6SM FEW060
     FM310500 15003KT P6SM BKN060=

USA.gov is the U.S. government's official web portal to all federal, state and local government web resources and services.